sensor_id;sensor_type;location;lat;lon;timestamp;P1;durP1;ratioP1;P2;durP2;ratioP2
25982;SDS011;13773;48.868;10.730;2023-05-24T00:01:08;7.33;;;5.00;;
25982;SDS011;13773;48.868;10.730;2023-05-24T00:03:34;6.07;;;4.53;;
25982;SDS011;13773;48.868;10.730;2023-05-24T00:06:03;6.63;;;4.00;;
25982;SDS011;13773;48.868;10.730;2023-05-24T00:08:31;8.93;;;4.63;;
25982;SDS011;13773;48.868;10.730;2023-05-24T00:10:59;7.87;;;4.70;;
25982;SDS011;13773;48.868;10.730;2023-05-24T00:13:26;9.17;;;5.00;;
25982;SDS011;13773;48.868;10.730;2023-05-24T00:15:52;8.60;;;4.83;;
25982;SDS011;13773;48.868;10.730;2023-05-24T00:18:17;6.93;;;4.63;;
25982;SDS011;13773;48.868;10.730;2023-05-24T00:20:43;13.47;;;4.50;;
25982;SDS011;13773;48.868;10.730;2023-05-24T00:23:09;7.37;;;4.47;;
25982;SDS011;13773;48.868;10.730;2023-05-24T00:25:35;7.70;;;4.97;;
25982;SDS011;13773;48.868;10.730;2023-05-24T00:28:01;7.00;;;4.57;;
25982;SDS011;13773;48.868;10.730;2023-05-24T00:30:26;9.57;;;4.77;;
25982;SDS011;13773;48.868;10.730;2023-05-24T00:32:52;6.87;;;4.63;;
25982;SDS011;13773;48.868;10.730;2023-05-24T00:35:18;8.27;;;4.13;;
25982;SDS011;13773;48.868;10.730;2023-05-24T00:37:44;8.80;;;4.40;;
25982;SDS011;13773;48.868;10.730;2023-05-24T00:40:11;6.83;;;4.67;;
25982;SDS011;13773;48.868;10.730;2023-05-24T00:42:37;5.83;;;4.50;;
25982;SDS011;13773;48.868;10.730;2023-05-24T00:45:03;7.93;;;4.77;;
25982;SDS011;13773;48.868;10.730;2023-05-24T00:47:29;9.20;;;4.67;;
25982;SDS011;13773;48.868;10.730;2023-05-24T00:49:55;7.43;;;4.67;;
25982;SDS011;13773;48.868;10.730;2023-05-24T00:52:21;8.67;;;5.00;;
25982;SDS011;13773;48.868;10.730;2023-05-24T00:54:47;7.03;;;4.80;;
25982;SDS011;13773;48.868;10.730;2023-05-24T00:57:13;10.47;;;4.80;;
25982;SDS011;13773;48.868;10.730;2023-05-24T00:59:39;9.87;;;5.43;;
25982;SDS011;13773;48.868;10.730;2023-05-24T01:02:05;10.90;;;4.87;;
25982;SDS011;13773;48.868;10.730;2023-05-24T01:04:32;11.00;;;5.33;;
25982;SDS011;13773;48.868;10.730;2023-05-24T01:07:08;8.27;;;4.90;;
25982;SDS011;13773;48.868;10.730;2023-05-24T01:09:42;10.70;;;5.37;;
25982;SDS011;13773;48.868;10.730;2023-05-24T01:12:21;10.00;;;4.87;;
25982;SDS011;13773;48.868;10.730;2023-05-24T01:20:31;7.70;;;4.50;;
25982;SDS011;13773;48.868;10.730;2023-05-24T01:23:06;8.97;;;5.40;;
25982;SDS011;13773;48.868;10.730;2023-05-24T01:28:18;9.43;;;4.73;;
25982;SDS011;13773;48.868;10.730;2023-05-24T01:30:45;10.90;;;5.00;;
25982;SDS011;13773;48.868;10.730;2023-05-24T01:33:11;5.63;;;4.23;;
25982;SDS011;13773;48.868;10.730;2023-05-24T01:35:37;6.57;;;4.17;;
25982;SDS011;13773;48.868;10.730;2023-05-24T01:38:06;8.23;;;4.90;;
25982;SDS011;13773;48.868;10.730;2023-05-24T01:40:34;8.27;;;4.93;;
25982;SDS011;13773;48.868;10.730;2023-05-24T01:49:05;8.87;;;5.27;;
25982;SDS011;13773;48.868;10.730;2023-05-24T01:51:36;10.57;;;4.93;;
25982;SDS011;13773;48.868;10.730;2023-05-24T01:54:08;8.90;;;5.03;;
25982;SDS011;13773;48.868;10.730;2023-05-24T01:56:35;10.87;;;5.50;;
25982;SDS011;13773;48.868;10.730;2023-05-24T01:59:03;9.17;;;5.10;;
25982;SDS011;13773;48.868;10.730;2023-05-24T02:01:30;10.27;;;5.53;;
25982;SDS011;13773;48.868;10.730;2023-05-24T02:03:56;8.87;;;5.40;;
25982;SDS011;13773;48.868;10.730;2023-05-24T02:06:23;10.53;;;5.67;;
25982;SDS011;13773;48.868;10.730;2023-05-24T02:08:48;12.03;;;6.60;;
25982;SDS011;13773;48.868;10.730;2023-05-24T02:11:14;10.87;;;5.67;;
25982;SDS011;13773;48.868;10.730;2023-05-24T02:13:40;12.00;;;5.30;;
25982;SDS011;13773;48.868;10.730;2023-05-24T02:16:05;14.83;;;5.83;;
25982;SDS011;13773;48.868;10.730;2023-05-24T02:18:31;10.13;;;5.67;;
25982;SDS011;13773;48.868;10.730;2023-05-24T02:20:59;11.87;;;6.07;;
25982;SDS011;13773;48.868;10.730;2023-05-24T02:23:26;8.17;;;5.90;;
25982;SDS011;13773;48.868;10.730;2023-05-24T02:25:52;12.40;;;5.83;;
25982;SDS011;13773;48.868;10.730;2023-05-24T02:28:17;9.50;;;5.63;;
25982;SDS011;13773;48.868;10.730;2023-05-24T02:30:43;11.87;;;5.87;;
25982;SDS011;13773;48.868;10.730;2023-05-24T02:33:09;11.27;;;6.10;;
25982;SDS011;13773;48.868;10.730;2023-05-24T02:35:36;13.07;;;5.67;;
25982;SDS011;13773;48.868;10.730;2023-05-24T02:38:02;13.77;;;6.13;;
25982;SDS011;13773;48.868;10.730;2023-05-24T02:40:30;12.87;;;6.10;;
25982;SDS011;13773;48.868;10.730;2023-05-24T02:42:56;15.30;;;6.60;;
25982;SDS011;13773;48.868;10.730;2023-05-24T02:45:22;10.13;;;6.07;;
25982;SDS011;13773;48.868;10.730;2023-05-24T02:47:47;12.10;;;6.90;;
25982;SDS011;13773;48.868;10.730;2023-05-24T02:50:13;9.90;;;6.00;;
25982;SDS011;13773;48.868;10.730;2023-05-24T02:52:39;8.20;;;5.97;;
25982;SDS011;13773;48.868;10.730;2023-05-24T02:55:05;12.57;;;6.00;;
25982;SDS011;13773;48.868;10.730;2023-05-24T02:57:31;9.73;;;5.80;;
25982;SDS011;13773;48.868;10.730;2023-05-24T02:59:59;14.20;;;6.73;;
25982;SDS011;13773;48.868;10.730;2023-05-24T03:02:25;10.10;;;6.47;;
25982;SDS011;13773;48.868;10.730;2023-05-24T03:04:53;13.13;;;6.50;;
25982;SDS011;13773;48.868;10.730;2023-05-24T03:07:19;13.50;;;6.30;;
25982;SDS011;13773;48.868;10.730;2023-05-24T03:09:46;10.23;;;6.17;;
25982;SDS011;13773;48.868;10.730;2023-05-24T03:12:11;12.00;;;6.67;;
25982;SDS011;13773;48.868;10.730;2023-05-24T03:14:38;11.40;;;6.40;;
25982;SDS011;13773;48.868;10.730;2023-05-24T03:17:03;12.13;;;6.60;;
25982;SDS011;13773;48.868;10.730;2023-05-24T03:19:29;11.93;;;6.53;;
25982;SDS011;13773;48.868;10.730;2023-05-24T03:21:55;13.70;;;5.97;;
25982;SDS011;13773;48.868;10.730;2023-05-24T03:24:20;9.87;;;6.00;;
25982;SDS011;13773;48.868;10.730;2023-05-24T03:26:46;10.73;;;6.73;;
25982;SDS011;13773;48.868;10.730;2023-05-24T03:29:12;10.70;;;7.37;;
25982;SDS011;13773;48.868;10.730;2023-05-24T03:31:37;11.77;;;6.47;;
25982;SDS011;13773;48.868;10.730;2023-05-24T03:34:03;15.17;;;7.90;;
25982;SDS011;13773;48.868;10.730;2023-05-24T03:36:29;12.30;;;7.03;;
25982;SDS011;13773;48.868;10.730;2023-05-24T03:38:55;11.43;;;6.63;;
25982;SDS011;13773;48.868;10.730;2023-05-24T03:41:22;15.73;;;6.93;;
25982;SDS011;13773;48.868;10.730;2023-05-24T03:43:48;9.13;;;7.27;;
25982;SDS011;13773;48.868;10.730;2023-05-24T03:46:14;15.33;;;7.07;;
25982;SDS011;13773;48.868;10.730;2023-05-24T03:48:40;15.83;;;7.13;;
25982;SDS011;13773;48.868;10.730;2023-05-24T03:51:05;13.60;;;7.20;;
25982;SDS011;13773;48.868;10.730;2023-05-24T03:53:33;15.80;;;7.33;;
25982;SDS011;13773;48.868;10.730;2023-05-24T03:55:59;10.67;;;7.33;;
25982;SDS011;13773;48.868;10.730;2023-05-24T03:58:25;14.40;;;6.77;;
25982;SDS011;13773;48.868;10.730;2023-05-24T04:00:51;12.33;;;6.70;;
25982;SDS011;13773;48.868;10.730;2023-05-24T04:03:16;12.60;;;8.10;;
25982;SDS011;13773;48.868;10.730;2023-05-24T04:05:44;14.77;;;7.60;;
25982;SDS011;13773;48.868;10.730;2023-05-24T04:08:10;15.83;;;6.83;;
25982;SDS011;13773;48.868;10.730;2023-05-24T04:10:36;10.27;;;6.30;;
25982;SDS011;13773;48.868;10.730;2023-05-24T04:13:02;8.10;;;5.70;;
25982;SDS011;13773;48.868;10.730;2023-05-24T04:15:28;11.97;;;5.90;;
25982;SDS011;13773;48.868;10.730;2023-05-24T04:17:54;11.70;;;6.53;;
25982;SDS011;13773;48.868;10.730;2023-05-24T04:20:20;13.17;;;6.83;;
25982;SDS011;13773;48.868;10.730;2023-05-24T04:22:51;11.27;;;6.30;;
25982;SDS011;13773;48.868;10.730;2023-05-24T04:25:17;11.87;;;5.97;;
25982;SDS011;13773;48.868;10.730;2023-05-24T04:27:42;10.93;;;6.70;;
25982;SDS011;13773;48.868;10.730;2023-05-24T04:30:12;9.17;;;5.70;;
25982;SDS011;13773;48.868;10.730;2023-05-24T04:32:42;10.63;;;6.27;;
25982;SDS011;13773;48.868;10.730;2023-05-24T04:35:08;12.47;;;6.50;;
25982;SDS011;13773;48.868;10.730;2023-05-24T04:37:35;11.63;;;6.33;;
25982;SDS011;13773;48.868;10.730;2023-05-24T04:40:00;9.80;;;6.37;;
25982;SDS011;13773;48.868;10.730;2023-05-24T04:42:28;8.60;;;6.17;;
25982;SDS011;13773;48.868;10.730;2023-05-24T04:44:55;7.83;;;5.77;;
25982;SDS011;13773;48.868;10.730;2023-05-24T04:47:21;10.43;;;5.80;;
25982;SDS011;13773;48.868;10.730;2023-05-24T04:49:47;9.83;;;5.50;;
25982;SDS011;13773;48.868;10.730;2023-05-24T04:52:13;9.57;;;5.73;;
25982;SDS011;13773;48.868;10.730;2023-05-24T04:54:40;13.77;;;6.90;;
25982;SDS011;13773;48.868;10.730;2023-05-24T04:57:05;11.50;;;5.83;;
25982;SDS011;13773;48.868;10.730;2023-05-24T04:59:31;11.07;;;5.93;;
25982;SDS011;13773;48.868;10.730;2023-05-24T05:01:57;12.53;;;5.70;;
25982;SDS011;13773;48.868;10.730;2023-05-24T05:04:22;11.90;;;5.83;;
25982;SDS011;13773;48.868;10.730;2023-05-24T05:06:48;14.20;;;5.70;;
25982;SDS011;13773;48.868;10.730;2023-05-24T05:09:14;10.97;;;5.90;;
25982;SDS011;13773;48.868;10.730;2023-05-24T05:11:40;12.30;;;5.70;;
25982;SDS011;13773;48.868;10.730;2023-05-24T05:14:06;11.27;;;5.93;;
25982;SDS011;13773;48.868;10.730;2023-05-24T05:16:33;13.43;;;6.17;;
25982;SDS011;13773;48.868;10.730;2023-05-24T05:19:01;13.53;;;6.10;;
25982;SDS011;13773;48.868;10.730;2023-05-24T05:21:30;10.03;;;5.97;;
25982;SDS011;13773;48.868;10.730;2023-05-24T05:23:57;13.77;;;5.57;;
25982;SDS011;13773;48.868;10.730;2023-05-24T05:26:24;9.50;;;5.80;;
25982;SDS011;13773;48.868;10.730;2023-05-24T05:28:52;9.57;;;5.67;;
25982;SDS011;13773;48.868;10.730;2023-05-24T05:31:21;12.63;;;6.27;;
25982;SDS011;13773;48.868;10.730;2023-05-24T05:33:47;8.57;;;4.77;;
25982;SDS011;13773;48.868;10.730;2023-05-24T05:36:13;12.20;;;5.33;;
25982;SDS011;13773;48.868;10.730;2023-05-24T05:38:39;8.70;;;5.20;;
25982;SDS011;13773;48.868;10.730;2023-05-24T05:41:05;9.10;;;5.50;;
25982;SDS011;13773;48.868;10.730;2023-05-24T05:43:31;11.03;;;4.30;;
25982;SDS011;13773;48.868;10.730;2023-05-24T05:45:57;11.03;;;5.33;;
25982;SDS011;13773;48.868;10.730;2023-05-24T05:48:24;12.70;;;5.63;;
25982;SDS011;13773;48.868;10.730;2023-05-24T05:50:50;12.87;;;4.43;;
25982;SDS011;13773;48.868;10.730;2023-05-24T05:53:16;12.60;;;5.27;;
25982;SDS011;13773;48.868;10.730;2023-05-24T05:55:42;12.10;;;4.73;;
25982;SDS011;13773;48.868;10.730;2023-05-24T05:58:07;9.23;;;4.93;;
25982;SDS011;13773;48.868;10.730;2023-05-24T06:00:33;9.17;;;4.50;;
25982;SDS011;13773;48.868;10.730;2023-05-24T06:02:59;9.57;;;4.57;;
25982;SDS011;13773;48.868;10.730;2023-05-24T06:05:24;9.73;;;4.43;;
25982;SDS011;13773;48.868;10.730;2023-05-24T06:07:50;10.83;;;4.40;;
25982;SDS011;13773;48.868;10.730;2023-05-24T06:10:16;11.83;;;4.77;;
25982;SDS011;13773;48.868;10.730;2023-05-24T06:12:42;11.53;;;4.93;;
25982;SDS011;13773;48.868;10.730;2023-05-24T06:15:08;13.87;;;4.80;;
25982;SDS011;13773;48.868;10.730;2023-05-24T06:17:34;9.37;;;4.67;;
25982;SDS011;13773;48.868;10.730;2023-05-24T06:20:02;11.37;;;4.30;;
25982;SDS011;13773;48.868;10.730;2023-05-24T06:22:32;13.93;;;4.83;;
25982;SDS011;13773;48.868;10.730;2023-05-24T06:24:57;15.10;;;5.07;;
25982;SDS011;13773;48.868;10.730;2023-05-24T06:27:23;9.80;;;3.90;;
25982;SDS011;13773;48.868;10.730;2023-05-24T06:29:50;13.27;;;4.40;;
25982;SDS011;13773;48.868;10.730;2023-05-24T06:32:16;11.27;;;4.70;;
25982;SDS011;13773;48.868;10.730;2023-05-24T06:34:41;13.00;;;4.43;;
25982;SDS011;13773;48.868;10.730;2023-05-24T06:37:07;11.17;;;4.90;;
25982;SDS011;13773;48.868;10.730;2023-05-24T06:39:39;8.70;;;4.90;;
25982;SDS011;13773;48.868;10.730;2023-05-24T06:42:05;10.50;;;4.80;;
25982;SDS011;13773;48.868;10.730;2023-05-24T06:44:31;10.10;;;4.93;;
25982;SDS011;13773;48.868;10.730;2023-05-24T06:47:01;10.83;;;4.93;;
25982;SDS011;13773;48.868;10.730;2023-05-24T06:49:27;11.47;;;5.13;;
25982;SDS011;13773;48.868;10.730;2023-05-24T06:51:54;10.57;;;4.20;;
25982;SDS011;13773;48.868;10.730;2023-05-24T06:54:19;15.27;;;6.07;;
25982;SDS011;13773;48.868;10.730;2023-05-24T06:56:46;13.30;;;5.30;;
25982;SDS011;13773;48.868;10.730;2023-05-24T06:59:18;11.93;;;5.20;;
25982;SDS011;13773;48.868;10.730;2023-05-24T07:01:45;9.70;;;5.30;;
25982;SDS011;13773;48.868;10.730;2023-05-24T07:04:15;13.83;;;5.67;;
25982;SDS011;13773;48.868;10.730;2023-05-24T07:06:43;10.63;;;4.50;;
25982;SDS011;13773;48.868;10.730;2023-05-24T07:09:10;11.80;;;5.10;;
25982;SDS011;13773;48.868;10.730;2023-05-24T07:11:35;12.27;;;4.83;;
25982;SDS011;13773;48.868;10.730;2023-05-24T07:14:01;12.77;;;5.57;;
25982;SDS011;13773;48.868;10.730;2023-05-24T07:16:27;12.93;;;5.13;;
25982;SDS011;13773;48.868;10.730;2023-05-24T07:18:53;11.73;;;5.17;;
25982;SDS011;13773;48.868;10.730;2023-05-24T07:21:20;9.63;;;4.33;;
25982;SDS011;13773;48.868;10.730;2023-05-24T07:23:50;7.53;;;4.47;;
25982;SDS011;13773;48.868;10.730;2023-05-24T07:26:16;8.80;;;5.03;;
25982;SDS011;13773;48.868;10.730;2023-05-24T07:28:42;11.87;;;5.17;;
25982;SDS011;13773;48.868;10.730;2023-05-24T07:31:08;13.67;;;4.83;;
25982;SDS011;13773;48.868;10.730;2023-05-24T07:33:37;9.23;;;4.40;;
25982;SDS011;13773;48.868;10.730;2023-05-24T07:36:05;10.53;;;4.77;;
25982;SDS011;13773;48.868;10.730;2023-05-24T07:38:31;13.47;;;5.87;;
25982;SDS011;13773;48.868;10.730;2023-05-24T07:40:58;10.27;;;5.30;;
25982;SDS011;13773;48.868;10.730;2023-05-24T07:43:25;9.27;;;5.23;;
25982;SDS011;13773;48.868;10.730;2023-05-24T07:45:51;11.83;;;5.43;;
25982;SDS011;13773;48.868;10.730;2023-05-24T07:48:18;9.77;;;5.23;;
25982;SDS011;13773;48.868;10.730;2023-05-24T07:50:44;14.50;;;5.33;;
25982;SDS011;13773;48.868;10.730;2023-05-24T07:53:14;8.97;;;5.50;;
25982;SDS011;13773;48.868;10.730;2023-05-24T07:55:39;12.17;;;5.47;;
25982;SDS011;13773;48.868;10.730;2023-05-24T07:58:05;11.33;;;5.10;;
25982;SDS011;13773;48.868;10.730;2023-05-24T08:00:31;10.23;;;5.10;;
25982;SDS011;13773;48.868;10.730;2023-05-24T08:02:58;9.93;;;5.00;;
25982;SDS011;13773;48.868;10.730;2023-05-24T08:05:24;12.20;;;5.30;;
25982;SDS011;13773;48.868;10.730;2023-05-24T08:07:50;8.57;;;5.07;;
25982;SDS011;13773;48.868;10.730;2023-05-24T08:10:16;11.40;;;5.57;;
25982;SDS011;13773;48.868;10.730;2023-05-24T08:12:42;12.57;;;5.20;;
25982;SDS011;13773;48.868;10.730;2023-05-24T08:15:08;10.93;;;5.57;;
25982;SDS011;13773;48.868;10.730;2023-05-24T08:17:34;10.70;;;4.67;;
25982;SDS011;13773;48.868;10.730;2023-05-24T08:20:02;8.73;;;4.53;;
25982;SDS011;13773;48.868;10.730;2023-05-24T08:22:33;8.50;;;4.60;;
25982;SDS011;13773;48.868;10.730;2023-05-24T08:25:00;10.07;;;4.70;;
25982;SDS011;13773;48.868;10.730;2023-05-24T08:27:25;12.37;;;5.30;;
25982;SDS011;13773;48.868;10.730;2023-05-24T08:29:54;10.50;;;4.63;;
25982;SDS011;13773;48.868;10.730;2023-05-24T08:32:20;12.37;;;4.70;;
25982;SDS011;13773;48.868;10.730;2023-05-24T08:34:46;11.77;;;4.40;;
25982;SDS011;13773;48.868;10.730;2023-05-24T08:37:11;10.00;;;5.17;;
25982;SDS011;13773;48.868;10.730;2023-05-24T08:39:39;7.90;;;4.47;;
25982;SDS011;13773;48.868;10.730;2023-05-24T08:42:05;12.90;;;5.13;;
25982;SDS011;13773;48.868;10.730;2023-05-24T08:44:34;8.43;;;4.37;;
25982;SDS011;13773;48.868;10.730;2023-05-24T08:47:11;7.40;;;4.30;;
25982;SDS011;13773;48.868;10.730;2023-05-24T08:49:39;13.10;;;4.67;;
25982;SDS011;13773;48.868;10.730;2023-05-24T08:52:06;8.80;;;4.77;;
25982;SDS011;13773;48.868;10.730;2023-05-24T08:54:36;9.33;;;4.50;;
25982;SDS011;13773;48.868;10.730;2023-05-24T08:57:04;11.13;;;4.93;;
25982;SDS011;13773;48.868;10.730;2023-05-24T08:59:31;6.97;;;4.20;;
25982;SDS011;13773;48.868;10.730;2023-05-24T09:01:57;13.43;;;4.87;;
25982;SDS011;13773;48.868;10.730;2023-05-24T09:04:23;9.07;;;3.90;;
25982;SDS011;13773;48.868;10.730;2023-05-24T09:06:51;6.53;;;4.07;;
25982;SDS011;13773;48.868;10.730;2023-05-24T09:09:19;9.97;;;4.30;;
25982;SDS011;13773;48.868;10.730;2023-05-24T09:11:46;13.83;;;4.93;;
25982;SDS011;13773;48.868;10.730;2023-05-24T09:14:15;11.00;;;4.27;;
25982;SDS011;13773;48.868;10.730;2023-05-24T09:16:42;9.90;;;4.60;;
25982;SDS011;13773;48.868;10.730;2023-05-24T09:19:08;12.00;;;4.60;;
25982;SDS011;13773;48.868;10.730;2023-05-24T09:21:34;8.53;;;4.90;;
25982;SDS011;13773;48.868;10.730;2023-05-24T09:24:01;12.70;;;4.90;;
25982;SDS011;13773;48.868;10.730;2023-05-24T09:26:28;13.40;;;5.13;;
25982;SDS011;13773;48.868;10.730;2023-05-24T09:28:54;8.43;;;4.63;;
25982;SDS011;13773;48.868;10.730;2023-05-24T09:31:42;11.90;;;4.80;;
25982;SDS011;13773;48.868;10.730;2023-05-24T09:34:13;8.57;;;3.90;;
25982;SDS011;13773;48.868;10.730;2023-05-24T09:36:39;10.50;;;4.97;;
25982;SDS011;13773;48.868;10.730;2023-05-24T09:39:08;10.70;;;5.00;;
25982;SDS011;13773;48.868;10.730;2023-05-24T09:41:35;7.93;;;4.00;;
25982;SDS011;13773;48.868;10.730;2023-05-24T09:44:01;9.07;;;4.60;;
25982;SDS011;13773;48.868;10.730;2023-05-24T09:46:27;11.13;;;4.40;;
25982;SDS011;13773;48.868;10.730;2023-05-24T09:48:58;11.17;;;4.40;;
25982;SDS011;13773;48.868;10.730;2023-05-24T09:51:27;9.07;;;4.23;;
25982;SDS011;13773;48.868;10.730;2023-05-24T09:53:56;11.53;;;4.60;;
25982;SDS011;13773;48.868;10.730;2023-05-24T09:56:25;11.57;;;4.87;;
25982;SDS011;13773;48.868;10.730;2023-05-24T09:58:51;11.60;;;4.90;;
25982;SDS011;13773;48.868;10.730;2023-05-24T10:01:17;9.23;;;4.67;;
25982;SDS011;13773;48.868;10.730;2023-05-24T10:03:51;12.07;;;5.17;;
25982;SDS011;13773;48.868;10.730;2023-05-24T10:06:22;9.60;;;4.67;;
25982;SDS011;13773;48.868;10.730;2023-05-24T10:08:49;9.57;;;4.87;;
25982;SDS011;13773;48.868;10.730;2023-05-24T10:11:16;10.93;;;5.17;;
25982;SDS011;13773;48.868;10.730;2023-05-24T10:13:45;13.23;;;4.87;;
25982;SDS011;13773;48.868;10.730;2023-05-24T10:16:12;13.23;;;5.07;;
25982;SDS011;13773;48.868;10.730;2023-05-24T10:18:37;9.40;;;4.10;;
25982;SDS011;13773;48.868;10.730;2023-05-24T10:21:06;8.03;;;4.23;;
25982;SDS011;13773;48.868;10.730;2023-05-24T10:23:33;9.23;;;4.33;;
25982;SDS011;13773;48.868;10.730;2023-05-24T10:26:04;8.93;;;4.60;;
25982;SDS011;13773;48.868;10.730;2023-05-24T10:28:34;13.63;;;4.80;;
25982;SDS011;13773;48.868;10.730;2023-05-24T10:31:06;7.80;;;4.53;;
25982;SDS011;13773;48.868;10.730;2023-05-24T10:33:36;10.97;;;4.70;;
25982;SDS011;13773;48.868;10.730;2023-05-24T10:36:03;10.63;;;5.23;;
25982;SDS011;13773;48.868;10.730;2023-05-24T10:38:31;11.57;;;4.67;;
25982;SDS011;13773;48.868;10.730;2023-05-24T10:40:58;11.27;;;5.13;;
25982;SDS011;13773;48.868;10.730;2023-05-24T10:43:24;9.63;;;4.57;;
25982;SDS011;13773;48.868;10.730;2023-05-24T10:45:50;11.33;;;4.73;;
25982;SDS011;13773;48.868;10.730;2023-05-24T10:50:48;11.37;;;4.83;;
25982;SDS011;13773;48.868;10.730;2023-05-24T10:53:17;8.57;;;4.87;;
25982;SDS011;13773;48.868;10.730;2023-05-24T10:56:01;8.80;;;5.20;;
25982;SDS011;13773;48.868;10.730;2023-05-24T11:00:58;10.30;;;5.40;;
25982;SDS011;13773;48.868;10.730;2023-05-24T11:03:23;14.53;;;5.97;;
25982;SDS011;13773;48.868;10.730;2023-05-24T11:05:50;10.40;;;5.33;;
25982;SDS011;13773;48.868;10.730;2023-05-24T11:08:22;12.57;;;6.40;;
25982;SDS011;13773;48.868;10.730;2023-05-24T11:10:48;10.63;;;5.93;;
25982;SDS011;13773;48.868;10.730;2023-05-24T11:13:15;11.70;;;5.47;;
25982;SDS011;13773;48.868;10.730;2023-05-24T11:15:49;13.20;;;6.30;;
25982;SDS011;13773;48.868;10.730;2023-05-24T11:18:15;12.93;;;6.33;;
25982;SDS011;13773;48.868;10.730;2023-05-24T11:20:46;9.97;;;5.13;;
25982;SDS011;13773;48.868;10.730;2023-05-24T11:23:13;14.03;;;6.60;;
25982;SDS011;13773;48.868;10.730;2023-05-24T11:25:40;14.00;;;5.43;;
25982;SDS011;13773;48.868;10.730;2023-05-24T11:28:07;11.57;;;5.53;;
25982;SDS011;13773;48.868;10.730;2023-05-24T11:30:41;11.73;;;5.20;;
25982;SDS011;13773;48.868;10.730;2023-05-24T11:33:17;13.03;;;5.27;;
25982;SDS011;13773;48.868;10.730;2023-05-24T11:35:44;18.13;;;5.90;;
25982;SDS011;13773;48.868;10.730;2023-05-24T11:38:11;15.70;;;6.23;;
25982;SDS011;13773;48.868;10.730;2023-05-24T11:40:44;9.57;;;5.17;;
25982;SDS011;13773;48.868;10.730;2023-05-24T11:43:11;9.43;;;5.33;;
25982;SDS011;13773;48.868;10.730;2023-05-24T11:45:41;12.87;;;5.43;;
25982;SDS011;13773;48.868;10.730;2023-05-24T11:48:11;12.10;;;5.10;;
25982;SDS011;13773;48.868;10.730;2023-05-24T11:50:40;14.93;;;6.20;;
25982;SDS011;13773;48.868;10.730;2023-05-24T11:53:11;13.60;;;6.40;;
25982;SDS011;13773;48.868;10.730;2023-05-24T11:55:37;12.07;;;5.50;;
25982;SDS011;13773;48.868;10.730;2023-05-24T11:58:06;11.87;;;5.20;;
25982;SDS011;13773;48.868;10.730;2023-05-24T12:00:41;8.80;;;4.70;;
25982;SDS011;13773;48.868;10.730;2023-05-24T12:03:07;9.63;;;5.00;;
25982;SDS011;13773;48.868;10.730;2023-05-24T12:05:33;10.93;;;5.40;;
25982;SDS011;13773;48.868;10.730;2023-05-24T12:10:32;11.13;;;5.47;;
25982;SDS011;13773;48.868;10.730;2023-05-24T12:12:59;14.40;;;5.93;;
25982;SDS011;13773;48.868;10.730;2023-05-24T12:15:29;10.93;;;5.17;;
25982;SDS011;13773;48.868;10.730;2023-05-24T12:17:55;8.93;;;5.13;;
25982;SDS011;13773;48.868;10.730;2023-05-24T12:20:22;8.33;;;5.00;;
25982;SDS011;13773;48.868;10.730;2023-05-24T12:22:48;13.93;;;4.60;;
25982;SDS011;13773;48.868;10.730;2023-05-24T12:25:18;8.80;;;4.63;;
25982;SDS011;13773;48.868;10.730;2023-05-24T12:27:46;10.20;;;5.20;;
25982;SDS011;13773;48.868;10.730;2023-05-24T12:30:24;10.70;;;5.27;;
25982;SDS011;13773;48.868;10.730;2023-05-24T12:32:51;10.63;;;5.07;;
25982;SDS011;13773;48.868;10.730;2023-05-24T12:35:20;13.93;;;4.97;;
25982;SDS011;13773;48.868;10.730;2023-05-24T12:37:47;7.37;;;4.37;;
25982;SDS011;13773;48.868;10.730;2023-05-24T12:40:19;9.57;;;4.70;;
25982;SDS011;13773;48.868;10.730;2023-05-24T12:42:53;9.80;;;4.80;;
25982;SDS011;13773;48.868;10.730;2023-05-24T12:45:21;12.63;;;5.00;;
25982;SDS011;13773;48.868;10.730;2023-05-24T12:47:49;14.60;;;5.13;;
25982;SDS011;13773;48.868;10.730;2023-05-24T12:50:19;12.60;;;4.93;;
25982;SDS011;13773;48.868;10.730;2023-05-24T12:52:46;9.07;;;4.93;;
25982;SDS011;13773;48.868;10.730;2023-05-24T12:55:12;10.70;;;4.70;;
25982;SDS011;13773;48.868;10.730;2023-05-24T12:57:41;13.27;;;5.23;;
25982;SDS011;13773;48.868;10.730;2023-05-24T13:00:08;11.37;;;4.70;;
25982;SDS011;13773;48.868;10.730;2023-05-24T13:02:35;11.37;;;5.13;;
25982;SDS011;13773;48.868;10.730;2023-05-24T13:05:02;12.57;;;5.13;;
25982;SDS011;13773;48.868;10.730;2023-05-24T13:07:28;12.47;;;4.63;;
25982;SDS011;13773;48.868;10.730;2023-05-24T13:09:55;11.23;;;5.13;;
25982;SDS011;13773;48.868;10.730;2023-05-24T13:12:21;14.30;;;5.13;;
25982;SDS011;13773;48.868;10.730;2023-05-24T13:14:46;11.20;;;5.07;;
25982;SDS011;13773;48.868;10.730;2023-05-24T13:17:12;11.47;;;5.00;;
25982;SDS011;13773;48.868;10.730;2023-05-24T13:19:40;10.37;;;4.63;;
25982;SDS011;13773;48.868;10.730;2023-05-24T13:22:05;10.07;;;4.90;;
25982;SDS011;13773;48.868;10.730;2023-05-24T13:24:31;14.17;;;6.17;;
25982;SDS011;13773;48.868;10.730;2023-05-24T13:26:57;9.73;;;4.67;;
25982;SDS011;13773;48.868;10.730;2023-05-24T13:29:23;12.67;;;4.97;;
25982;SDS011;13773;48.868;10.730;2023-05-24T13:31:49;9.67;;;5.10;;
25982;SDS011;13773;48.868;10.730;2023-05-24T13:34:14;8.50;;;4.87;;
25982;SDS011;13773;48.868;10.730;2023-05-24T13:36:41;8.77;;;4.50;;
25982;SDS011;13773;48.868;10.730;2023-05-24T13:39:09;10.13;;;4.73;;
25982;SDS011;13773;48.868;10.730;2023-05-24T13:41:35;11.90;;;5.43;;
25982;SDS011;13773;48.868;10.730;2023-05-24T13:44:01;10.77;;;5.40;;
25982;SDS011;13773;48.868;10.730;2023-05-24T13:46:27;11.60;;;4.73;;
25982;SDS011;13773;48.868;10.730;2023-05-24T13:48:54;11.23;;;4.70;;
25982;SDS011;13773;48.868;10.730;2023-05-24T13:51:21;12.07;;;4.17;;
25982;SDS011;13773;48.868;10.730;2023-05-24T13:53:48;12.37;;;5.03;;
25982;SDS011;13773;48.868;10.730;2023-05-24T13:56:14;9.63;;;4.63;;
25982;SDS011;13773;48.868;10.730;2023-05-24T13:58:40;10.70;;;5.17;;
25982;SDS011;13773;48.868;10.730;2023-05-24T14:01:06;11.33;;;5.40;;
25982;SDS011;13773;48.868;10.730;2023-05-24T14:03:33;9.10;;;4.87;;
25982;SDS011;13773;48.868;10.730;2023-05-24T14:05:58;10.63;;;4.83;;
25982;SDS011;13773;48.868;10.730;2023-05-24T14:08:25;8.83;;;4.10;;
25982;SDS011;13773;48.868;10.730;2023-05-24T14:10:51;10.97;;;4.57;;
25982;SDS011;13773;48.868;10.730;2023-05-24T14:13:17;9.57;;;4.47;;
25982;SDS011;13773;48.868;10.730;2023-05-24T14:15:43;7.40;;;3.60;;
25982;SDS011;13773;48.868;10.730;2023-05-24T14:18:10;8.23;;;4.17;;
25982;SDS011;13773;48.868;10.730;2023-05-24T14:20:37;9.70;;;4.83;;
25982;SDS011;13773;48.868;10.730;2023-05-24T14:23:05;10.13;;;4.47;;
25982;SDS011;13773;48.868;10.730;2023-05-24T14:25:31;10.30;;;4.47;;
25982;SDS011;13773;48.868;10.730;2023-05-24T14:27:57;8.80;;;4.27;;
25982;SDS011;13773;48.868;10.730;2023-05-24T14:30:23;11.30;;;4.47;;
25982;SDS011;13773;48.868;10.730;2023-05-24T14:32:49;9.20;;;4.53;;
25982;SDS011;13773;48.868;10.730;2023-05-24T14:35:15;7.50;;;4.10;;
25982;SDS011;13773;48.868;10.730;2023-05-24T14:37:41;7.67;;;4.10;;
25982;SDS011;13773;48.868;10.730;2023-05-24T14:40:07;9.10;;;3.97;;
25982;SDS011;13773;48.868;10.730;2023-05-24T14:42:33;7.17;;;3.70;;
25982;SDS011;13773;48.868;10.730;2023-05-24T14:45:00;9.13;;;3.80;;
25982;SDS011;13773;48.868;10.730;2023-05-24T14:47:26;6.87;;;4.07;;